Terminal Aerodrome Forecast
Issued by NWS

Home | Current Version | Previous Version | Text Only | Print | Product List | Glossary On
Versions: 1 2 3 4 5 6 7 8 9 10 11 12 13 14 15 16 17 18 19 20 21 22 23 24
000
FTUS43 KAPX 110927 AAA
TAFPLN
TAF AMD
KPLN 110927Z 1109/1206 36004KT P6SM BKN025 OVC035
     FM111300 33008KT P6SM BKN035
     FM112000 28010G16KT 5SM -SHSN OVC035
     FM120000 27008KT 5SM -SHSN OVC035=

USA.gov is the U.S. government's official web portal to all federal, state and local government web resources and services.